sensor_id;sensor_type;location;lat;lon;timestamp;pressure;altitude;pressure_sealevel;temperature;humidity
24390;BME280;12510;56.468;-3.004;2022-07-24T00:00:24;99507.28;;;20.76;100.00
24390;BME280;12510;56.468;-3.004;2022-07-24T00:02:50;99513.81;;;20.80;100.00
24390;BME280;12510;56.468;-3.004;2022-07-24T00:05:17;99510.09;;;20.81;100.00
24390;BME280;12510;56.468;-3.004;2022-07-24T00:07:43;99500.22;;;20.82;100.00
24390;BME280;12510;56.468;-3.004;2022-07-24T00:10:10;99494.88;;;20.82;100.00
24390;BME280;12510;56.468;-3.004;2022-07-24T00:12:37;99446.59;;;20.76;100.00
24390;BME280;12510;56.468;-3.004;2022-07-24T00:15:04;99403.06;;;21.05;100.00
24390;BME280;12510;56.468;-3.004;2022-07-24T00:17:31;99399.66;;;21.09;100.00
24390;BME280;12510;56.468;-3.004;2022-07-24T00:19:57;99418.84;;;21.18;100.00
24390;BME280;12510;56.468;-3.004;2022-07-24T00:22:24;99422.31;;;21.31;100.00
24390;BME280;12510;56.468;-3.004;2022-07-24T00:24:50;99425.72;;;21.26;100.00
24390;BME280;12510;56.468;-3.004;2022-07-24T00:27:17;99437.34;;;21.32;100.00
24390;BME280;12510;56.468;-3.004;2022-07-24T00:29:43;99431.66;;;21.04;100.00
24390;BME280;12510;56.468;-3.004;2022-07-24T00:32:09;99426.78;;;21.01;100.00
24390;BME280;12510;56.468;-3.004;2022-07-24T00:34:36;99428.19;;;20.92;100.00
24390;BME280;12510;56.468;-3.004;2022-07-24T00:37:02;99417.59;;;21.09;100.00
24390;BME280;12510;56.468;-3.004;2022-07-24T00:39:28;99417.22;;;21.17;100.00
24390;BME280;12510;56.468;-3.004;2022-07-24T00:41:55;99404.22;;;20.97;100.00
24390;BME280;12510;56.468;-3.004;2022-07-24T00:44:21;99402.56;;;21.20;100.00
24390;BME280;12510;56.468;-3.004;2022-07-24T00:46:48;99398.34;;;21.24;100.00
24390;BME280;12510;56.468;-3.004;2022-07-24T00:49:16;99392.75;;;21.25;100.00
24390;BME280;12510;56.468;-3.004;2022-07-24T00:51:45;99388.69;;;21.23;100.00
24390;BME280;12510;56.468;-3.004;2022-07-24T00:54:12;99381.72;;;21.22;100.00
24390;BME280;12510;56.468;-3.004;2022-07-24T00:56:41;99371.47;;;21.19;100.00
24390;BME280;12510;56.468;-3.004;2022-07-24T00:59:08;99379.97;;;21.27;100.00
24390;BME280;12510;56.468;-3.004;2022-07-24T01:01:34;99371.03;;;21.10;100.00
24390;BME280;12510;56.468;-3.004;2022-07-24T01:04:01;99375.31;;;21.23;100.00
24390;BME280;12510;56.468;-3.004;2022-07-24T01:06:28;99356.16;;;21.02;100.00
24390;BME280;12510;56.468;-3.004;2022-07-24T01:08:54;99363.78;;;21.22;100.00
24390;BME280;12510;56.468;-3.004;2022-07-24T01:11:22;99344.88;;;21.00;100.00
24390;BME280;12510;56.468;-3.004;2022-07-24T01:13:49;99344.53;;;21.08;100.00
24390;BME280;12510;56.468;-3.004;2022-07-24T01:16:16;99330.56;;;21.06;100.00
24390;BME280;12510;56.468;-3.004;2022-07-24T01:18:42;99337.06;;;21.10;100.00
24390;BME280;12510;56.468;-3.004;2022-07-24T01:21:09;99326.47;;;21.04;100.00
24390;BME280;12510;56.468;-3.004;2022-07-24T01:23:37;99320.25;;;20.86;100.00
24390;BME280;12510;56.468;-3.004;2022-07-24T01:26:06;99310.25;;;20.82;100.00
24390;BME280;12510;56.468;-3.004;2022-07-24T01:28:33;99312.69;;;20.95;100.00
24390;BME280;12510;56.468;-3.004;2022-07-24T01:31:00;99309.63;;;21.03;100.00
24390;BME280;12510;56.468;-3.004;2022-07-24T01:33:26;99308.44;;;21.11;100.00
24390;BME280;12510;56.468;-3.004;2022-07-24T01:35:53;99304.22;;;21.15;100.00
24390;BME280;12510;56.468;-3.004;2022-07-24T01:38:19;99310.16;;;21.17;100.00
24390;BME280;12510;56.468;-3.004;2022-07-24T01:40:46;99307.50;;;21.05;100.00
24390;BME280;12510;56.468;-3.004;2022-07-24T01:43:12;99309.34;;;21.17;100.00
24390;BME280;12510;56.468;-3.004;2022-07-24T01:45:39;99303.94;;;21.00;100.00
24390;BME280;12510;56.468;-3.004;2022-07-24T01:48:05;99298.81;;;20.98;100.00
24390;BME280;12510;56.468;-3.004;2022-07-24T01:50:32;99307.19;;;21.02;100.00
24390;BME280;12510;56.468;-3.004;2022-07-24T01:52:58;99299.72;;;21.04;100.00
24390;BME280;12510;56.468;-3.004;2022-07-24T01:55:28;99303.09;;;20.35;100.00
24390;BME280;12510;56.468;-3.004;2022-07-24T01:57:54;99297.00;;;20.63;100.00
24390;BME280;12510;56.468;-3.004;2022-07-24T02:00:21;99293.06;;;20.18;100.00
24390;BME280;12510;56.468;-3.004;2022-07-24T02:02:47;99289.38;;;20.43;100.00
24390;BME280;12510;56.468;-3.004;2022-07-24T02:05:14;99286.69;;;20.55;100.00
24390;BME280;12510;56.468;-3.004;2022-07-24T02:07:42;99292.69;;;20.62;100.00
24390;BME280;12510;56.468;-3.004;2022-07-24T02:10:10;99287.63;;;20.25;100.00
24390;BME280;12510;56.468;-3.004;2022-07-24T02:12:37;99284.69;;;20.50;100.00
24390;BME280;12510;56.468;-3.004;2022-07-24T02:15:06;99279.72;;;20.30;100.00
24390;BME280;12510;56.468;-3.004;2022-07-24T02:17:32;99288.16;;;20.63;100.00
24390;BME280;12510;56.468;-3.004;2022-07-24T02:19:59;99270.97;;;20.47;100.00
24390;BME280;12510;56.468;-3.004;2022-07-24T02:22:25;99286.06;;;20.88;100.00
24390;BME280;12510;56.468;-3.004;2022-07-24T02:24:52;99280.25;;;20.68;100.00
24390;BME280;12510;56.468;-3.004;2022-07-24T02:27:18;99281.19;;;20.73;100.00
24390;BME280;12510;56.468;-3.004;2022-07-24T02:29:44;99277.56;;;20.68;100.00
24390;BME280;12510;56.468;-3.004;2022-07-24T02:32:11;99268.63;;;20.74;100.00
24390;BME280;12510;56.468;-3.004;2022-07-24T02:34:37;99274.34;;;21.06;100.00
24390;BME280;12510;56.468;-3.004;2022-07-24T02:37:04;99276.56;;;20.69;100.00
24390;BME280;12510;56.468;-3.004;2022-07-24T02:39:30;99277.09;;;20.83;100.00
24390;BME280;12510;56.468;-3.004;2022-07-24T02:41:56;99276.66;;;20.62;100.00
24390;BME280;12510;56.468;-3.004;2022-07-24T02:44:23;99267.34;;;20.65;100.00
24390;BME280;12510;56.468;-3.004;2022-07-24T02:46:49;99264.09;;;20.51;100.00
24390;BME280;12510;56.468;-3.004;2022-07-24T02:49:16;99252.31;;;20.11;100.00
24390;BME280;12510;56.468;-3.004;2022-07-24T02:51:42;99236.53;;;20.62;100.00
24390;BME280;12510;56.468;-3.004;2022-07-24T02:54:08;99231.72;;;20.35;100.00
24390;BME280;12510;56.468;-3.004;2022-07-24T02:56:35;99242.53;;;20.29;100.00
24390;BME280;12510;56.468;-3.004;2022-07-24T02:59:01;99235.66;;;20.45;100.00
24390;BME280;12510;56.468;-3.004;2022-07-24T03:01:28;99239.34;;;20.96;100.00
24390;BME280;12510;56.468;-3.004;2022-07-24T03:03:54;99254.44;;;20.73;100.00
24390;BME280;12510;56.468;-3.004;2022-07-24T03:06:20;99260.94;;;20.77;100.00
24390;BME280;12510;56.468;-3.004;2022-07-24T03:08:47;99257.38;;;21.01;100.00
24390;BME280;12510;56.468;-3.004;2022-07-24T03:11:13;99257.47;;;20.77;100.00
24390;BME280;12510;56.468;-3.004;2022-07-24T03:13:39;99251.09;;;21.24;100.00
24390;BME280;12510;56.468;-3.004;2022-07-24T03:16:06;99234.78;;;21.08;100.00
24390;BME280;12510;56.468;-3.004;2022-07-24T03:18:33;99240.44;;;21.12;100.00
24390;BME280;12510;56.468;-3.004;2022-07-24T03:20:59;99232.50;;;20.48;100.00
24390;BME280;12510;56.468;-3.004;2022-07-24T03:23:25;99238.75;;;20.53;100.00
24390;BME280;12510;56.468;-3.004;2022-07-24T03:25:52;99241.72;;;19.92;100.00
24390;BME280;12510;56.468;-3.004;2022-07-24T03:28:20;99234.41;;;20.12;100.00
24390;BME280;12510;56.468;-3.004;2022-07-24T03:30:46;99230.00;;;20.05;100.00
24390;BME280;12510;56.468;-3.004;2022-07-24T03:33:13;99238.94;;;19.99;100.00
24390;BME280;12510;56.468;-3.004;2022-07-24T03:35:39;99236.84;;;19.89;100.00
24390;BME280;12510;56.468;-3.004;2022-07-24T03:38:06;99246.38;;;20.09;100.00
24390;BME280;12510;56.468;-3.004;2022-07-24T03:40:32;99255.78;;;20.23;100.00
24390;BME280;12510;56.468;-3.004;2022-07-24T03:42:59;99262.00;;;20.53;100.00
24390;BME280;12510;56.468;-3.004;2022-07-24T03:45:26;99278.56;;;20.26;100.00
24390;BME280;12510;56.468;-3.004;2022-07-24T03:47:52;99274.59;;;19.93;100.00
24390;BME280;12510;56.468;-3.004;2022-07-24T03:50:18;99266.09;;;20.43;100.00
24390;BME280;12510;56.468;-3.004;2022-07-24T03:52:45;99259.63;;;19.50;100.00
24390;BME280;12510;56.468;-3.004;2022-07-24T03:55:11;99251.47;;;20.10;100.00
24390;BME280;12510;56.468;-3.004;2022-07-24T03:57:37;99255.91;;;20.05;100.00
24390;BME280;12510;56.468;-3.004;2022-07-24T04:00:05;99258.19;;;19.77;100.00
24390;BME280;12510;56.468;-3.004;2022-07-24T04:02:39;99266.09;;;20.32;100.00
24390;BME280;12510;56.468;-3.004;2022-07-24T04:05:06;99270.56;;;19.60;100.00
24390;BME280;12510;56.468;-3.004;2022-07-24T04:07:35;99260.34;;;19.57;100.00
24390;BME280;12510;56.468;-3.004;2022-07-24T04:10:03;99264.78;;;19.21;100.00
24390;BME280;12510;56.468;-3.004;2022-07-24T04:12:29;99260.47;;;19.62;100.00
24390;BME280;12510;56.468;-3.004;2022-07-24T04:14:56;99263.13;;;19.62;100.00
24390;BME280;12510;56.468;-3.004;2022-07-24T04:17:22;99272.47;;;19.29;100.00
24390;BME280;12510;56.468;-3.004;2022-07-24T04:19:48;99279.53;;;19.35;100.00
24390;BME280;12510;56.468;-3.004;2022-07-24T04:22:15;99290.47;;;19.76;100.00
24390;BME280;12510;56.468;-3.004;2022-07-24T04:24:41;99287.56;;;19.35;100.00
24390;BME280;12510;56.468;-3.004;2022-07-24T04:27:08;99299.47;;;20.05;100.00
24390;BME280;12510;56.468;-3.004;2022-07-24T04:29:34;99302.25;;;19.87;100.00
24390;BME280;12510;56.468;-3.004;2022-07-24T04:32:01;99316.50;;;19.81;100.00
24390;BME280;12510;56.468;-3.004;2022-07-24T04:34:27;99314.47;;;19.34;100.00
24390;BME280;12510;56.468;-3.004;2022-07-24T04:36:53;99316.38;;;19.15;100.00
24390;BME280;12510;56.468;-3.004;2022-07-24T04:39:20;99320.91;;;19.45;100.00
24390;BME280;12510;56.468;-3.004;2022-07-24T04:41:46;99318.22;;;19.45;100.00
24390;BME280;12510;56.468;-3.004;2022-07-24T04:44:12;99336.47;;;19.48;100.00
24390;BME280;12510;56.468;-3.004;2022-07-24T04:46:39;99334.75;;;19.04;100.00
24390;BME280;12510;56.468;-3.004;2022-07-24T04:49:05;99343.22;;;19.01;100.00
24390;BME280;12510;56.468;-3.004;2022-07-24T04:51:31;99339.88;;;19.06;100.00
24390;BME280;12510;56.468;-3.004;2022-07-24T04:53:58;99356.63;;;19.43;100.00
24390;BME280;12510;56.468;-3.004;2022-07-24T04:56:24;99352.38;;;19.24;100.00
24390;BME280;12510;56.468;-3.004;2022-07-24T04:58:51;99358.50;;;18.94;100.00
24390;BME280;12510;56.468;-3.004;2022-07-24T05:01:17;99355.53;;;19.02;100.00
24390;BME280;12510;56.468;-3.004;2022-07-24T05:03:43;99349.44;;;18.95;100.00
24390;BME280;12510;56.468;-3.004;2022-07-24T05:06:10;99355.88;;;18.87;100.00
24390;BME280;12510;56.468;-3.004;2022-07-24T05:08:36;99347.44;;;18.90;100.00
24390;BME280;12510;56.468;-3.004;2022-07-24T05:11:02;99347.00;;;18.93;100.00
24390;BME280;12510;56.468;-3.004;2022-07-24T05:13:29;99359.03;;;18.77;100.00
24390;BME280;12510;56.468;-3.004;2022-07-24T05:15:55;99360.22;;;18.82;100.00
24390;BME280;12510;56.468;-3.004;2022-07-24T05:18:22;99356.28;;;18.66;100.00
24390;BME280;12510;56.468;-3.004;2022-07-24T05:20:48;99370.34;;;18.98;100.00
24390;BME280;12510;56.468;-3.004;2022-07-24T05:23:14;99369.16;;;18.94;100.00
24390;BME280;12510;56.468;-3.004;2022-07-24T05:25:41;99365.88;;;18.92;100.00
24390;BME280;12510;56.468;-3.004;2022-07-24T05:28:07;99373.28;;;19.27;100.00
24390;BME280;12510;56.468;-3.004;2022-07-24T05:30:33;99368.25;;;19.00;100.00
24390;BME280;12510;56.468;-3.004;2022-07-24T05:33:00;99372.41;;;18.96;100.00
24390;BME280;12510;56.468;-3.004;2022-07-24T05:35:26;99378.22;;;19.42;100.00
24390;BME280;12510;56.468;-3.004;2022-07-24T05:37:53;99377.97;;;19.32;100.00
24390;BME280;12510;56.468;-3.004;2022-07-24T05:40:19;99381.88;;;19.59;100.00
24390;BME280;12510;56.468;-3.004;2022-07-24T05:42:46;99387.72;;;19.87;100.00
24390;BME280;12510;56.468;-3.004;2022-07-24T05:45:12;99389.38;;;19.88;100.00
24390;BME280;12510;56.468;-3.004;2022-07-24T05:47:39;99401.38;;;20.21;100.00
24390;BME280;12510;56.468;-3.004;2022-07-24T05:50:08;99394.59;;;19.95;100.00
24390;BME280;12510;56.468;-3.004;2022-07-24T05:52:35;99391.63;;;20.38;100.00
24390;BME280;12510;56.468;-3.004;2022-07-24T05:55:02;99398.63;;;20.51;100.00
24390;BME280;12510;56.468;-3.004;2022-07-24T05:57:29;99384.47;;;20.39;100.00
24390;BME280;12510;56.468;-3.004;2022-07-24T05:59:55;99379.91;;;20.39;100.00
24390;BME280;12510;56.468;-3.004;2022-07-24T06:02:22;99389.09;;;20.55;100.00
24390;BME280;12510;56.468;-3.004;2022-07-24T06:04:48;99384.19;;;20.64;100.00
24390;BME280;12510;56.468;-3.004;2022-07-24T06:07:15;99385.81;;;20.18;100.00
24390;BME280;12510;56.468;-3.004;2022-07-24T06:09:41;99384.63;;;20.02;100.00
24390;BME280;12510;56.468;-3.004;2022-07-24T06:12:08;99374.03;;;19.65;100.00
24390;BME280;12510;56.468;-3.004;2022-07-24T06:14:34;99384.78;;;19.58;100.00
24390;BME280;12510;56.468;-3.004;2022-07-24T06:17:01;99372.66;;;19.74;100.00
24390;BME280;12510;56.468;-3.004;2022-07-24T06:19:27;99382.81;;;19.84;100.00
24390;BME280;12510;56.468;-3.004;2022-07-24T06:21:54;99384.13;;;19.81;100.00
24390;BME280;12510;56.468;-3.004;2022-07-24T06:24:20;99380.72;;;20.16;100.00
24390;BME280;12510;56.468;-3.004;2022-07-24T06:26:46;99383.16;;;20.18;100.00
24390;BME280;12510;56.468;-3.004;2022-07-24T06:29:13;99390.91;;;20.07;100.00
24390;BME280;12510;56.468;-3.004;2022-07-24T06:31:39;99387.72;;;19.87;100.00
24390;BME280;12510;56.468;-3.004;2022-07-24T06:34:05;99395.03;;;20.46;100.00
24390;BME280;12510;56.468;-3.004;2022-07-24T06:36:32;99398.41;;;20.53;100.00
24390;BME280;12510;56.468;-3.004;2022-07-24T06:38:58;99405.31;;;20.72;100.00
24390;BME280;12510;56.468;-3.004;2022-07-24T06:41:25;99396.75;;;20.52;100.00
24390;BME280;12510;56.468;-3.004;2022-07-24T06:43:51;99402.59;;;20.60;100.00
24390;BME280;12510;56.468;-3.004;2022-07-24T06:46:17;99391.44;;;20.75;100.00
24390;BME280;12510;56.468;-3.004;2022-07-24T06:48:44;99399.44;;;21.11;100.00
24390;BME280;12510;56.468;-3.004;2022-07-24T06:51:10;99397.94;;;21.44;100.00
24390;BME280;12510;56.468;-3.004;2022-07-24T06:53:36;99399.88;;;21.20;100.00
24390;BME280;12510;56.468;-3.004;2022-07-24T06:56:03;99403.50;;;22.29;100.00
24390;BME280;12510;56.468;-3.004;2022-07-24T06:58:30;99406.56;;;22.04;100.00
24390;BME280;12510;56.468;-3.004;2022-07-24T07:00:56;99410.75;;;22.63;100.00
24390;BME280;12510;56.468;-3.004;2022-07-24T07:03:23;99409.59;;;21.79;100.00
24390;BME280;12510;56.468;-3.004;2022-07-24T07:05:49;99406.88;;;21.09;100.00
24390;BME280;12510;56.468;-3.004;2022-07-24T07:08:15;99407.25;;;21.01;100.00
24390;BME280;12510;56.468;-3.004;2022-07-24T07:10:42;99408.28;;;21.12;100.00
24390;BME280;12510;56.468;-3.004;2022-07-24T07:13:08;99402.56;;;20.37;100.00
24390;BME280;12510;56.468;-3.004;2022-07-24T07:15:34;99406.47;;;20.10;100.00
24390;BME280;12510;56.468;-3.004;2022-07-24T07:18:01;99407.34;;;20.47;100.00
24390;BME280;12510;56.468;-3.004;2022-07-24T07:20:27;99407.38;;;20.70;100.00
24390;BME280;12510;56.468;-3.004;2022-07-24T07:22:54;99407.50;;;20.75;100.00
24390;BME280;12510;56.468;-3.004;2022-07-24T07:25:20;99393.09;;;20.88;100.00
24390;BME280;12510;56.468;-3.004;2022-07-24T07:27:47;99403.66;;;20.71;100.00
24390;BME280;12510;56.468;-3.004;2022-07-24T07:30:13;99398.75;;;20.92;100.00
24390;BME280;12510;56.468;-3.004;2022-07-24T07:32:40;99402.22;;;21.04;100.00
24390;BME280;12510;56.468;-3.004;2022-07-24T07:35:07;99401.09;;;20.65;100.00
24390;BME280;12510;56.468;-3.004;2022-07-24T07:37:34;99402.00;;;20.35;100.00
24390;BME280;12510;56.468;-3.004;2022-07-24T07:40:00;99404.34;;;20.55;100.00
24390;BME280;12510;56.468;-3.004;2022-07-24T07:42:27;99397.56;;;20.64;100.00
24390;BME280;12510;56.468;-3.004;2022-07-24T07:44:54;99405.31;;;20.72;100.00
24390;BME280;12510;56.468;-3.004;2022-07-24T07:47:20;99403.06;;;20.46;100.00
24390;BME280;12510;56.468;-3.004;2022-07-24T07:49:46;99401.06;;;21.00;100.00
24390;BME280;12510;56.468;-3.004;2022-07-24T07:52:13;99399.22;;;21.01;100.00
24390;BME280;12510;56.468;-3.004;2022-07-24T07:54:39;99397.41;;;21.30;100.00
24390;BME280;12510;56.468;-3.004;2022-07-24T07:57:06;99403.63;;;21.59;100.00
24390;BME280;12510;56.468;-3.004;2022-07-24T07:59:32;99406.63;;;21.22;100.00
24390;BME280;12510;56.468;-3.004;2022-07-24T08:01:58;99403.09;;;21.34;100.00
24390;BME280;12510;56.468;-3.004;2022-07-24T08:04:25;99396.94;;;21.33;100.00
24390;BME280;12510;56.468;-3.004;2022-07-24T08:06:51;99397.88;;;21.27;100.00
24390;BME280;12510;56.468;-3.004;2022-07-24T08:09:18;99399.88;;;21.60;100.00
24390;BME280;12510;56.468;-3.004;2022-07-24T08:11:44;99392.75;;;21.25;100.00
24390;BME280;12510;56.468;-3.004;2022-07-24T08:14:10;99410.28;;;21.57;100.00
24390;BME280;12510;56.468;-3.004;2022-07-24T08:16:37;99396.41;;;22.06;100.00
24390;BME280;12510;56.468;-3.004;2022-07-24T08:19:03;99402.34;;;21.62;100.00
24390;BME280;12510;56.468;-3.004;2022-07-24T08:21:29;99417.66;;;22.98;100.00
24390;BME280;12510;56.468;-3.004;2022-07-24T08:23:57;99407.72;;;22.59;100.00
24390;BME280;12510;56.468;-3.004;2022-07-24T08:26:24;99418.97;;;23.84;100.00
24390;BME280;12510;56.468;-3.004;2022-07-24T08:28:51;99407.91;;;21.89;100.00
24390;BME280;12510;56.468;-3.004;2022-07-24T08:31:17;99410.47;;;22.13;100.00
24390;BME280;12510;56.468;-3.004;2022-07-24T08:33:44;99411.88;;;22.50;100.00
24390;BME280;12510;56.468;-3.004;2022-07-24T08:36:10;99412.22;;;22.36;100.00
24390;BME280;12510;56.468;-3.004;2022-07-24T08:38:36;99420.16;;;22.31;100.00
24390;BME280;12510;56.468;-3.004;2022-07-24T08:41:03;99430.84;;;21.97;100.00
24390;BME280;12510;56.468;-3.004;2022-07-24T08:43:29;99421.56;;;21.47;100.00
24390;BME280;12510;56.468;-3.004;2022-07-24T08:45:56;99426.88;;;21.71;100.00
24390;BME280;12510;56.468;-3.004;2022-07-24T08:48:23;99433.34;;;21.46;100.00
24390;BME280;12510;56.468;-3.004;2022-07-24T08:50:50;99434.19;;;21.35;100.00
24390;BME280;12510;56.468;-3.004;2022-07-24T08:53:21;99418.72;;;21.25;100.00
24390;BME280;12510;56.468;-3.004;2022-07-24T08:55:48;99410.06;;;22.04;100.00
24390;BME280;12510;56.468;-3.004;2022-07-24T08:58:15;99437.25;;;21.96;100.00
24390;BME280;12510;56.468;-3.004;2022-07-24T09:00:42;99421.13;;;22.25;100.00
24390;BME280;12510;56.468;-3.004;2022-07-24T09:03:09;99424.13;;;21.54;100.00
24390;BME280;12510;56.468;-3.004;2022-07-24T09:05:55;99432.78;;;22.02;100.00
24390;BME280;12510;56.468;-3.004;2022-07-24T09:08:22;99434.13;;;22.16;100.00
24390;BME280;12510;56.468;-3.004;2022-07-24T09:11:00;99440.19;;;21.95;100.00
24390;BME280;12510;56.468;-3.004;2022-07-24T09:13:27;99428.72;;;21.99;100.00
24390;BME280;12510;56.468;-3.004;2022-07-24T09:15:56;99437.50;;;23.14;100.00
24390;BME280;12510;56.468;-3.004;2022-07-24T09:18:31;99431.25;;;22.35;100.00
24390;BME280;12510;56.468;-3.004;2022-07-24T09:20:59;99438.44;;;23.47;100.00
24390;BME280;12510;56.468;-3.004;2022-07-24T09:23:26;99452.75;;;23.52;100.00
24390;BME280;12510;56.468;-3.004;2022-07-24T09:25:54;99469.63;;;23.48;100.00
24390;BME280;12510;56.468;-3.004;2022-07-24T09:28:21;99450.41;;;23.34;100.00
24390;BME280;12510;56.468;-3.004;2022-07-24T09:30:48;99446.31;;;22.92;100.00
24390;BME280;12510;56.468;-3.004;2022-07-24T09:33:17;99465.75;;;22.99;100.00
24390;BME280;12510;56.468;-3.004;2022-07-24T09:35:47;99443.94;;;22.27;100.00
24390;BME280;12510;56.468;-3.004;2022-07-24T09:38:16;99460.78;;;22.23;100.00
24390;BME280;12510;56.468;-3.004;2022-07-24T09:40:50;99469.16;;;22.26;100.00
24390;BME280;12510;56.468;-3.004;2022-07-24T09:50:54;99467.25;;;22.10;100.00
24390;BME280;12510;56.468;-3.004;2022-07-24T09:53:29;99468.22;;;22.21;100.00
24390;BME280;12510;56.468;-3.004;2022-07-24T09:58:25;99474.66;;;22.20;100.00
24390;BME280;12510;56.468;-3.004;2022-07-24T10:00:56;99476.91;;;22.57;100.00
24390;BME280;12510;56.468;-3.004;2022-07-24T10:03:25;99463.56;;;22.62;100.00
24390;BME280;12510;56.468;-3.004;2022-07-24T10:06:02;99474.38;;;22.50;100.00
24390;BME280;12510;56.468;-3.004;2022-07-24T10:08:31;99472.94;;;22.76;100.00
24390;BME280;12510;56.468;-3.004;2022-07-24T10:10:59;99473.09;;;22.53;100.00
24390;BME280;12510;56.468;-3.004;2022-07-24T10:13:27;99473.19;;;22.75;100.00
24390;BME280;12510;56.468;-3.004;2022-07-24T10:21:07;99480.66;;;23.29;100.00
24390;BME280;12510;56.468;-3.004;2022-07-24T10:26:44;99482.22;;;23.69;100.00
24390;BME280;12510;56.468;-3.004;2022-07-24T10:29:12;99477.88;;;22.68;100.00
24390;BME280;12510;56.468;-3.004;2022-07-24T10:31:44;99483.31;;;23.07;100.00
24390;BME280;12510;56.468;-3.004;2022-07-24T10:34:24;99479.00;;;23.45;100.00
24390;BME280;12510;56.468;-3.004;2022-07-24T10:37:09;99483.72;;;23.16;100.00
24390;BME280;12510;56.468;-3.004;2022-07-24T10:39:47;99476.75;;;23.59;100.00
24390;BME280;12510;56.468;-3.004;2022-07-24T10:42:17;99483.88;;;24.52;100.00
24390;BME280;12510;56.468;-3.004;2022-07-24T10:44:44;99490.09;;;24.53;100.00
24390;BME280;12510;56.468;-3.004;2022-07-24T10:47:12;99476.63;;;23.93;100.00
24390;BME280;12510;56.468;-3.004;2022-07-24T10:49:41;99471.69;;;24.12;100.00
24390;BME280;12510;56.468;-3.004;2022-07-24T10:52:24;99490.38;;;24.89;100.00
24390;BME280;12510;56.468;-3.004;2022-07-24T10:55:29;99475.25;;;24.83;100.00
24390;BME280;12510;56.468;-3.004;2022-07-24T10:58:11;99484.28;;;25.57;100.00
24390;BME280;12510;56.468;-3.004;2022-07-24T11:00:40;99483.25;;;25.79;100.00
24390;BME280;12510;56.468;-3.004;2022-07-24T11:03:24;99494.72;;;25.38;100.00
24390;BME280;12510;56.468;-3.004;2022-07-24T11:06:11;99483.63;;;26.08;100.00
24390;BME280;12510;56.468;-3.004;2022-07-24T11:08:48;99487.41;;;25.33;100.00
24390;BME280;12510;56.468;-3.004;2022-07-24T11:11:17;99480.72;;;25.46;100.00
24390;BME280;12510;56.468;-3.004;2022-07-24T11:13:47;99487.72;;;26.67;100.00
24390;BME280;12510;56.468;-3.004;2022-07-24T11:16:18;99494.78;;;25.53;100.00
24390;BME280;12510;56.468;-3.004;2022-07-24T11:21:35;99487.47;;;24.31;100.00
24390;BME280;12510;56.468;-3.004;2022-07-24T11:26:51;99481.81;;;25.40;100.00
24390;BME280;12510;56.468;-3.004;2022-07-24T11:29:26;99495.75;;;24.56;100.00
24390;BME280;12510;56.468;-3.004;2022-07-24T11:32:06;99488.53;;;25.37;100.00
24390;BME280;12510;56.468;-3.004;2022-07-24T11:34:35;99485.25;;;26.09;100.00
24390;BME280;12510;56.468;-3.004;2022-07-24T11:37:03;99484.63;;;25.86;100.00
24390;BME280;12510;56.468;-3.004;2022-07-24T11:39:34;99491.78;;;26.80;100.00
24390;BME280;12510;56.468;-3.004;2022-07-24T11:42:06;99485.56;;;26.90;100.00
24390;BME280;12510;56.468;-3.004;2022-07-24T11:44:45;99485.47;;;27.26;100.00
24390;BME280;12510;56.468;-3.004;2022-07-24T11:47:14;99494.69;;;27.20;100.00
24390;BME280;12510;56.468;-3.004;2022-07-24T11:49:44;99493.06;;;27.19;100.00
24390;BME280;12510;56.468;-3.004;2022-07-24T11:52:17;99498.16;;;25.28;100.00
24390;BME280;12510;56.468;-3.004;2022-07-24T11:54:46;99502.91;;;25.64;100.00
24390;BME280;12510;56.468;-3.004;2022-07-24T11:57:24;99496.78;;;24.83;100.00
24390;BME280;12510;56.468;-3.004;2022-07-24T11:59:52;99492.47;;;24.82;100.00
24390;BME280;12510;56.468;-3.004;2022-07-24T12:02:19;99497.25;;;25.60;100.00
24390;BME280;12510;56.468;-3.004;2022-07-24T12:04:46;99496.22;;;24.75;100.00
24390;BME280;12510;56.468;-3.004;2022-07-24T12:07:16;99493.81;;;25.27;100.00
24390;BME280;12510;56.468;-3.004;2022-07-24T12:09:43;99493.56;;;24.21;100.00
24390;BME280;12510;56.468;-3.004;2022-07-24T12:12:24;99493.56;;;24.86;100.00
24390;BME280;12510;56.468;-3.004;2022-07-24T12:15:03;99492.44;;;25.72;100.00
24390;BME280;12510;56.468;-3.004;2022-07-24T12:17:32;99480.88;;;25.87;100.00
24390;BME280;12510;56.468;-3.004;2022-07-24T12:20:00;99485.03;;;25.42;100.00
24390;BME280;12510;56.468;-3.004;2022-07-24T12:22:27;99491.63;;;25.67;100.00
24390;BME280;12510;56.468;-3.004;2022-07-24T12:24:56;99485.53;;;26.28;100.00
24390;BME280;12510;56.468;-3.004;2022-07-24T12:27:37;99478.91;;;24.66;100.00
24390;BME280;12510;56.468;-3.004;2022-07-24T12:30:22;99487.38;;;25.28;100.00
24390;BME280;12510;56.468;-3.004;2022-07-24T12:35:23;99477.66;;;25.27;100.00
24390;BME280;12510;56.468;-3.004;2022-07-24T12:37:52;99480.84;;;25.19;100.00
24390;BME280;12510;56.468;-3.004;2022-07-24T12:40:28;99490.84;;;25.92;100.00
24390;BME280;12510;56.468;-3.004;2022-07-24T12:43:17;99486.72;;;25.53;100.00
24390;BME280;12510;56.468;-3.004;2022-07-24T12:45:43;99472.97;;;25.55;100.00
24390;BME280;12510;56.468;-3.004;2022-07-24T12:48:20;99485.03;;;25.42;100.00
24390;BME280;12510;56.468;-3.004;2022-07-24T12:51:13;99472.78;;;24.76;100.00
24390;BME280;12510;56.468;-3.004;2022-07-24T12:53:42;99477.06;;;24.44;100.00
24390;BME280;12510;56.468;-3.004;2022-07-24T12:56:16;99487.13;;;24.54;100.00
24390;BME280;12510;56.468;-3.004;2022-07-24T12:58:54;99469.44;;;23.76;100.00
24390;BME280;12510;56.468;-3.004;2022-07-24T13:01:22;99460.13;;;22.33;100.00
24390;BME280;12510;56.468;-3.004;2022-07-24T13:03:59;99458.97;;;21.83;100.00
24390;BME280;12510;56.468;-3.004;2022-07-24T13:06:40;99445.03;;;22.26;100.00
24390;BME280;12510;56.468;-3.004;2022-07-24T13:09:08;99449.94;;;22.47;100.00
24390;BME280;12510;56.468;-3.004;2022-07-24T13:11:36;99445.94;;;22.66;100.00